Roma, Australia
Current Conditions -  °F | °C
As of 11:00 AM on Monday 24 Nov 2014 (Local Time) from YBCV Reporting Station
Clear Clear  
Wind Chill: 95°   Ceiling: Unl
Heat Index: 95°   Visibility: 6mi
Dew Point: 57°   Wind: 13mph
Humidity: 28%   Direction: 360°N
Pressure: 29.91"   Gusts: NA
Location:  26.57°S, 148.79°E
Report Text: YBCV 240100Z 36011KT CAVOK 35/14 Q1013
Loading
Personal Weather Stations






























Interactive Weather Map New forecast layout! Learn more

10-Day Weather Forecast

Advertisements
Track Severe Weather on mobile